sensor_id;sensor_type;location;lat;lon;timestamp;temperature;humidity
39695;DHT22;25367;-35.352;149.036;2022-08-23T00:00:14;24.20;40.70
39695;DHT22;25367;-35.352;149.036;2022-08-23T00:02:44;24.50;40.50
39695;DHT22;25367;-35.352;149.036;2022-08-23T00:05:13;24.50;40.10
39695;DHT22;25367;-35.352;149.036;2022-08-23T00:07:43;24.50;40.00
39695;DHT22;25367;-35.352;149.036;2022-08-23T00:10:15;24.50;39.90
39695;DHT22;25367;-35.352;149.036;2022-08-23T00:12:45;24.50;39.90
39695;DHT22;25367;-35.352;149.036;2022-08-23T00:15:17;24.50;39.80
39695;DHT22;25367;-35.352;149.036;2022-08-23T00:17:47;24.50;39.80
39695;DHT22;25367;-35.352;149.036;2022-08-23T00:20:18;24.50;39.80
39695;DHT22;25367;-35.352;149.036;2022-08-23T00:22:48;24.50;39.80
39695;DHT22;25367;-35.352;149.036;2022-08-23T00:25:19;24.40;39.80
39695;DHT22;25367;-35.352;149.036;2022-08-23T00:27:48;24.40;39.80
39695;DHT22;25367;-35.352;149.036;2022-08-23T00:30:18;24.40;40.00
39695;DHT22;25367;-35.352;149.036;2022-08-23T00:32:47;24.30;39.80
39695;DHT22;25367;-35.352;149.036;2022-08-23T00:35:17;24.30;39.80
39695;DHT22;25367;-35.352;149.036;2022-08-23T00:37:47;24.20;39.80
39695;DHT22;25367;-35.352;149.036;2022-08-23T00:40:19;24.30;39.80
39695;DHT22;25367;-35.352;149.036;2022-08-23T00:42:52;24.20;39.80
39695;DHT22;25367;-35.352;149.036;2022-08-23T00:45:32;24.20;39.80
39695;DHT22;25367;-35.352;149.036;2022-08-23T00:48:05;24.20;39.80
39695;DHT22;25367;-35.352;149.036;2022-08-23T00:50:38;24.10;39.70
39695;DHT22;25367;-35.352;149.036;2022-08-23T00:53:09;24.10;39.80
39695;DHT22;25367;-35.352;149.036;2022-08-23T00:55:45;24.10;39.80
39695;DHT22;25367;-35.352;149.036;2022-08-23T00:58:17;24.10;39.80
39695;DHT22;25367;-35.352;149.036;2022-08-23T01:00:47;24.10;39.80
39695;DHT22;25367;-35.352;149.036;2022-08-23T01:03:19;24.00;39.80
39695;DHT22;25367;-35.352;149.036;2022-08-23T01:05:53;24.00;39.80
39695;DHT22;25367;-35.352;149.036;2022-08-23T01:08:26;24.00;39.90
39695;DHT22;25367;-35.352;149.036;2022-08-23T01:11:03;23.90;39.90
39695;DHT22;25367;-35.352;149.036;2022-08-23T01:13:37;24.00;39.80
39695;DHT22;25367;-35.352;149.036;2022-08-23T01:16:09;23.90;39.90
39695;DHT22;25367;-35.352;149.036;2022-08-23T01:18:41;23.90;39.80
39695;DHT22;25367;-35.352;149.036;2022-08-23T01:21:22;24.00;39.80
39695;DHT22;25367;-35.352;149.036;2022-08-23T01:23:58;23.90;39.80
39695;DHT22;25367;-35.352;149.036;2022-08-23T01:26:28;23.80;39.90
39695;DHT22;25367;-35.352;149.036;2022-08-23T01:28:59;23.80;40.00
39695;DHT22;25367;-35.352;149.036;2022-08-23T01:31:29;23.70;40.10
39695;DHT22;25367;-35.352;149.036;2022-08-23T01:34:03;23.70;40.00
39695;DHT22;25367;-35.352;149.036;2022-08-23T01:36:33;23.70;40.10
39695;DHT22;25367;-35.352;149.036;2022-08-23T01:39:06;23.70;40.10
39695;DHT22;25367;-35.352;149.036;2022-08-23T01:41:35;23.70;40.00
39695;DHT22;25367;-35.352;149.036;2022-08-23T01:44:05;23.70;40.00
39695;DHT22;25367;-35.352;149.036;2022-08-23T01:46:36;23.70;40.00
39695;DHT22;25367;-35.352;149.036;2022-08-23T01:49:06;23.70;40.00
39695;DHT22;25367;-35.352;149.036;2022-08-23T01:51:35;23.70;39.90
39695;DHT22;25367;-35.352;149.036;2022-08-23T01:54:08;23.70;39.80
39695;DHT22;25367;-35.352;149.036;2022-08-23T01:56:38;23.80;39.70
39695;DHT22;25367;-35.352;149.036;2022-08-23T01:59:10;23.80;39.60
39695;DHT22;25367;-35.352;149.036;2022-08-23T02:01:47;23.70;39.60
39695;DHT22;25367;-35.352;149.036;2022-08-23T02:04:17;23.80;39.70
39695;DHT22;25367;-35.352;149.036;2022-08-23T02:06:48;23.80;39.70
39695;DHT22;25367;-35.352;149.036;2022-08-23T02:09:28;23.70;39.60
39695;DHT22;25367;-35.352;149.036;2022-08-23T02:12:01;23.70;39.60
39695;DHT22;25367;-35.352;149.036;2022-08-23T02:14:31;23.70;39.60
39695;DHT22;25367;-35.352;149.036;2022-08-23T02:17:02;23.80;40.20
39695;DHT22;25367;-35.352;149.036;2022-08-23T02:19:32;23.80;39.50
39695;DHT22;25367;-35.352;149.036;2022-08-23T02:22:07;23.70;39.50
39695;DHT22;25367;-35.352;149.036;2022-08-23T02:24:43;23.70;39.60
39695;DHT22;25367;-35.352;149.036;2022-08-23T02:27:14;23.70;39.60
39695;DHT22;25367;-35.352;149.036;2022-08-23T02:29:45;23.70;39.60
39695;DHT22;25367;-35.352;149.036;2022-08-23T02:32:16;23.60;39.60
39695;DHT22;25367;-35.352;149.036;2022-08-23T02:34:47;23.60;39.60
39695;DHT22;25367;-35.352;149.036;2022-08-23T02:37:16;23.60;39.60
39695;DHT22;25367;-35.352;149.036;2022-08-23T02:39:48;23.60;40.20
39695;DHT22;25367;-35.352;149.036;2022-08-23T02:42:18;23.80;40.40
39695;DHT22;25367;-35.352;149.036;2022-08-23T02:44:47;23.60;40.70
39695;DHT22;25367;-35.352;149.036;2022-08-23T02:47:17;23.30;41.30
39695;DHT22;25367;-35.352;149.036;2022-08-23T02:49:55;23.30;41.60
39695;DHT22;25367;-35.352;149.036;2022-08-23T02:52:25;23.70;40.90
39695;DHT22;25367;-35.352;149.036;2022-08-23T02:54:57;24.20;40.20
39695;DHT22;25367;-35.352;149.036;2022-08-23T02:57:27;24.30;40.10
39695;DHT22;25367;-35.352;149.036;2022-08-23T02:59:57;24.30;40.10
39695;DHT22;25367;-35.352;149.036;2022-08-23T03:02:27;24.60;40.00
39695;DHT22;25367;-35.352;149.036;2022-08-23T03:04:56;24.50;40.20
39695;DHT22;25367;-35.352;149.036;2022-08-23T03:07:26;24.60;40.40
39695;DHT22;25367;-35.352;149.036;2022-08-23T03:09:57;24.80;40.30
39695;DHT22;25367;-35.352;149.036;2022-08-23T03:12:27;24.70;40.30
39695;DHT22;25367;-35.352;149.036;2022-08-23T03:14:58;24.90;40.50
39695;DHT22;25367;-35.352;149.036;2022-08-23T03:17:28;24.90;40.50
39695;DHT22;25367;-35.352;149.036;2022-08-23T03:19:57;25.10;40.30
39695;DHT22;25367;-35.352;149.036;2022-08-23T03:22:27;25.30;40.30
39695;DHT22;25367;-35.352;149.036;2022-08-23T03:24:59;25.20;40.20
39695;DHT22;25367;-35.352;149.036;2022-08-23T03:27:38;25.00;40.30
39695;DHT22;25367;-35.352;149.036;2022-08-23T03:30:08;24.90;40.30
39695;DHT22;25367;-35.352;149.036;2022-08-23T03:32:39;24.90;40.30
39695;DHT22;25367;-35.352;149.036;2022-08-23T03:35:10;24.90;40.40
39695;DHT22;25367;-35.352;149.036;2022-08-23T03:37:40;24.80;40.30
39695;DHT22;25367;-35.352;149.036;2022-08-23T03:40:12;24.80;40.30
39695;DHT22;25367;-35.352;149.036;2022-08-23T03:42:41;24.80;40.20
39695;DHT22;25367;-35.352;149.036;2022-08-23T03:45:11;24.80;40.20
39695;DHT22;25367;-35.352;149.036;2022-08-23T03:47:41;24.90;40.20
39695;DHT22;25367;-35.352;149.036;2022-08-23T03:50:10;24.80;40.20
39695;DHT22;25367;-35.352;149.036;2022-08-23T03:52:43;24.80;40.10
39695;DHT22;25367;-35.352;149.036;2022-08-23T03:55:15;24.80;40.10
39695;DHT22;25367;-35.352;149.036;2022-08-23T03:57:50;24.70;40.10
39695;DHT22;25367;-35.352;149.036;2022-08-23T04:00:22;24.70;40.10
39695;DHT22;25367;-35.352;149.036;2022-08-23T04:02:54;24.70;40.00
39695;DHT22;25367;-35.352;149.036;2022-08-23T04:05:26;24.70;40.10
39695;DHT22;25367;-35.352;149.036;2022-08-23T04:08:09;24.70;40.10
39695;DHT22;25367;-35.352;149.036;2022-08-23T04:10:43;24.70;40.00
39695;DHT22;25367;-35.352;149.036;2022-08-23T04:13:12;24.70;40.00
39695;DHT22;25367;-35.352;149.036;2022-08-23T04:15:43;24.70;40.00
39695;DHT22;25367;-35.352;149.036;2022-08-23T04:18:12;24.70;40.00
39695;DHT22;25367;-35.352;149.036;2022-08-23T04:20:42;24.70;40.00
39695;DHT22;25367;-35.352;149.036;2022-08-23T04:23:11;24.60;39.90
39695;DHT22;25367;-35.352;149.036;2022-08-23T04:25:52;24.60;40.00
39695;DHT22;25367;-35.352;149.036;2022-08-23T04:28:21;24.60;40.00
39695;DHT22;25367;-35.352;149.036;2022-08-23T04:30:51;24.60;39.90
39695;DHT22;25367;-35.352;149.036;2022-08-23T04:33:21;24.50;40.00
39695;DHT22;25367;-35.352;149.036;2022-08-23T04:35:50;24.50;40.00
39695;DHT22;25367;-35.352;149.036;2022-08-23T04:38:22;24.60;40.80
39695;DHT22;25367;-35.352;149.036;2022-08-23T04:40:53;24.60;40.90
39695;DHT22;25367;-35.352;149.036;2022-08-23T04:43:23;24.70;40.80
39695;DHT22;25367;-35.352;149.036;2022-08-23T04:45:53;24.50;41.20
39695;DHT22;25367;-35.352;149.036;2022-08-23T04:48:32;24.20;41.80
39695;DHT22;25367;-35.352;149.036;2022-08-23T04:51:02;24.10;41.70
39695;DHT22;25367;-35.352;149.036;2022-08-23T04:53:40;24.60;40.70
39695;DHT22;25367;-35.352;149.036;2022-08-23T04:56:30;24.80;40.30
39695;DHT22;25367;-35.352;149.036;2022-08-23T04:59:00;24.90;40.00
39695;DHT22;25367;-35.352;149.036;2022-08-23T05:01:30;24.90;40.00
39695;DHT22;25367;-35.352;149.036;2022-08-23T05:03:59;24.80;39.90
39695;DHT22;25367;-35.352;149.036;2022-08-23T05:06:29;24.80;40.00
39695;DHT22;25367;-35.352;149.036;2022-08-23T05:08:59;24.70;40.00
39695;DHT22;25367;-35.352;149.036;2022-08-23T05:11:30;24.80;40.30
39695;DHT22;25367;-35.352;149.036;2022-08-23T05:14:00;24.70;40.60
39695;DHT22;25367;-35.352;149.036;2022-08-23T05:16:30;24.70;40.00
39695;DHT22;25367;-35.352;149.036;2022-08-23T05:19:04;24.70;40.00
39695;DHT22;25367;-35.352;149.036;2022-08-23T05:21:39;24.60;39.90
39695;DHT22;25367;-35.352;149.036;2022-08-23T05:24:08;24.60;39.90
39695;DHT22;25367;-35.352;149.036;2022-08-23T05:26:40;24.60;39.80
39695;DHT22;25367;-35.352;149.036;2022-08-23T05:29:10;24.60;40.40
39695;DHT22;25367;-35.352;149.036;2022-08-23T05:31:45;24.70;40.50
39695;DHT22;25367;-35.352;149.036;2022-08-23T05:34:16;24.80;40.40
39695;DHT22;25367;-35.352;149.036;2022-08-23T05:36:53;24.40;41.20
39695;DHT22;25367;-35.352;149.036;2022-08-23T05:39:23;24.20;41.70
39695;DHT22;25367;-35.352;149.036;2022-08-23T05:41:54;24.20;41.60
39695;DHT22;25367;-35.352;149.036;2022-08-23T05:44:24;24.50;41.30
39695;DHT22;25367;-35.352;149.036;2022-08-23T05:46:54;25.10;40.30
39695;DHT22;25367;-35.352;149.036;2022-08-23T05:49:30;25.20;40.20
39695;DHT22;25367;-35.352;149.036;2022-08-23T05:52:01;25.40;39.80
39695;DHT22;25367;-35.352;149.036;2022-08-23T05:54:34;25.50;39.70
39695;DHT22;25367;-35.352;149.036;2022-08-23T05:57:29;25.70;39.70
39695;DHT22;25367;-35.352;149.036;2022-08-23T05:59:58;25.70;39.70
39695;DHT22;25367;-35.352;149.036;2022-08-23T06:02:28;25.70;39.80
39695;DHT22;25367;-35.352;149.036;2022-08-23T06:04:59;25.60;39.90
39695;DHT22;25367;-35.352;149.036;2022-08-23T06:07:29;25.60;40.00
39695;DHT22;25367;-35.352;149.036;2022-08-23T06:09:58;25.50;40.40
39695;DHT22;25367;-35.352;149.036;2022-08-23T06:12:30;25.60;40.30
39695;DHT22;25367;-35.352;149.036;2022-08-23T06:15:03;25.70;40.30
39695;DHT22;25367;-35.352;149.036;2022-08-23T06:17:32;25.50;40.70
39695;DHT22;25367;-35.352;149.036;2022-08-23T06:20:02;25.60;40.60
39695;DHT22;25367;-35.352;149.036;2022-08-23T06:22:39;26.00;40.00
39695;DHT22;25367;-35.352;149.036;2022-08-23T06:25:09;26.20;39.50
39695;DHT22;25367;-35.352;149.036;2022-08-23T06:28:01;25.80;40.20
39695;DHT22;25367;-35.352;149.036;2022-08-23T06:30:30;26.00;39.70
39695;DHT22;25367;-35.352;149.036;2022-08-23T06:33:05;26.00;39.70
39695;DHT22;25367;-35.352;149.036;2022-08-23T06:35:59;25.90;39.70
39695;DHT22;25367;-35.352;149.036;2022-08-23T06:38:39;25.90;39.60
39695;DHT22;25367;-35.352;149.036;2022-08-23T06:41:13;25.90;39.60
39695;DHT22;25367;-35.352;149.036;2022-08-23T06:43:52;25.90;39.50
39695;DHT22;25367;-35.352;149.036;2022-08-23T06:47:00;25.80;39.50
39695;DHT22;25367;-35.352;149.036;2022-08-23T06:49:29;25.80;39.40
39695;DHT22;25367;-35.352;149.036;2022-08-23T06:51:59;25.80;39.40
39695;DHT22;25367;-35.352;149.036;2022-08-23T06:54:49;25.80;39.50
39695;DHT22;25367;-35.352;149.036;2022-08-23T06:57:44;25.70;39.50
39695;DHT22;25367;-35.352;149.036;2022-08-23T07:00:35;25.60;39.50
39695;DHT22;25367;-35.352;149.036;2022-08-23T07:03:28;25.60;39.60
39695;DHT22;25367;-35.352;149.036;2022-08-23T07:06:15;25.60;39.60
39695;DHT22;25367;-35.352;149.036;2022-08-23T07:08:44;25.60;40.00
39695;DHT22;25367;-35.352;149.036;2022-08-23T07:11:14;25.70;39.90
39695;DHT22;25367;-35.352;149.036;2022-08-23T07:13:43;25.60;39.90
39695;DHT22;25367;-35.352;149.036;2022-08-23T07:16:15;25.20;40.70
39695;DHT22;25367;-35.352;149.036;2022-08-23T07:18:45;25.00;41.10
39695;DHT22;25367;-35.352;149.036;2022-08-23T07:21:15;25.00;41.20
39695;DHT22;25367;-35.352;149.036;2022-08-23T07:23:46;25.10;41.10
39695;DHT22;25367;-35.352;149.036;2022-08-23T07:26:17;25.40;40.60
39695;DHT22;25367;-35.352;149.036;2022-08-23T07:28:46;25.60;40.40
39695;DHT22;25367;-35.352;149.036;2022-08-23T07:31:20;25.40;40.70
39695;DHT22;25367;-35.352;149.036;2022-08-23T07:33:49;25.40;40.90
39695;DHT22;25367;-35.352;149.036;2022-08-23T07:36:23;25.90;40.00
39695;DHT22;25367;-35.352;149.036;2022-08-23T07:38:54;25.90;39.80
39695;DHT22;25367;-35.352;149.036;2022-08-23T07:41:27;25.90;39.70
39695;DHT22;25367;-35.352;149.036;2022-08-23T07:43:57;25.90;39.80
39695;DHT22;25367;-35.352;149.036;2022-08-23T07:46:30;25.80;39.70
39695;DHT22;25367;-35.352;149.036;2022-08-23T07:49:01;25.80;39.70
39695;DHT22;25367;-35.352;149.036;2022-08-23T07:51:39;25.80;39.70
39695;DHT22;25367;-35.352;149.036;2022-08-23T07:54:10;25.70;39.70
39695;DHT22;25367;-35.352;149.036;2022-08-23T07:56:48;25.70;39.70
39695;DHT22;25367;-35.352;149.036;2022-08-23T07:59:45;25.70;40.00
39695;DHT22;25367;-35.352;149.036;2022-08-23T08:02:28;25.70;39.80
39695;DHT22;25367;-35.352;149.036;2022-08-23T08:04:59;25.60;40.00
39695;DHT22;25367;-35.352;149.036;2022-08-23T08:07:28;25.50;39.90
39695;DHT22;25367;-35.352;149.036;2022-08-23T08:10:00;25.50;39.90
39695;DHT22;25367;-35.352;149.036;2022-08-23T08:12:31;25.50;39.90
39695;DHT22;25367;-35.352;149.036;2022-08-23T08:15:08;25.40;39.70
39695;DHT22;25367;-35.352;149.036;2022-08-23T08:17:43;25.40;39.70
39695;DHT22;25367;-35.352;149.036;2022-08-23T08:20:20;25.50;39.80
39695;DHT22;25367;-35.352;149.036;2022-08-23T08:22:50;25.40;39.70
39695;DHT22;25367;-35.352;149.036;2022-08-23T08:25:45;25.30;39.80
39695;DHT22;25367;-35.352;149.036;2022-08-23T08:28:16;25.30;39.70
39695;DHT22;25367;-35.352;149.036;2022-08-23T08:30:46;25.30;40.00
39695;DHT22;25367;-35.352;149.036;2022-08-23T08:33:18;25.20;40.20
39695;DHT22;25367;-35.352;149.036;2022-08-23T08:35:55;25.20;40.00
39695;DHT22;25367;-35.352;149.036;2022-08-23T08:38:25;25.20;40.00
39695;DHT22;25367;-35.352;149.036;2022-08-23T08:41:00;25.10;40.00
39695;DHT22;25367;-35.352;149.036;2022-08-23T08:43:42;25.00;40.00
39695;DHT22;25367;-35.352;149.036;2022-08-23T08:46:22;25.00;40.10
39695;DHT22;25367;-35.352;149.036;2022-08-23T08:48:58;25.00;40.20
39695;DHT22;25367;-35.352;149.036;2022-08-23T08:51:39;25.00;40.80
39695;DHT22;25367;-35.352;149.036;2022-08-23T08:54:10;25.00;40.80
39695;DHT22;25367;-35.352;149.036;2022-08-23T08:56:49;24.90;41.30
39695;DHT22;25367;-35.352;149.036;2022-08-23T08:59:27;25.00;41.10
39695;DHT22;25367;-35.352;149.036;2022-08-23T09:01:59;25.00;41.50
39695;DHT22;25367;-35.352;149.036;2022-08-23T09:04:40;24.90;41.00
39695;DHT22;25367;-35.352;149.036;2022-08-23T09:07:15;24.90;41.00
39695;DHT22;25367;-35.352;149.036;2022-08-23T09:10:02;24.80;41.00
39695;DHT22;25367;-35.352;149.036;2022-08-23T09:12:40;24.90;40.90
39695;DHT22;25367;-35.352;149.036;2022-08-23T09:15:21;24.90;41.00
39695;DHT22;25367;-35.352;149.036;2022-08-23T09:17:57;24.90;41.10
39695;DHT22;25367;-35.352;149.036;2022-08-23T09:20:36;24.80;41.10
39695;DHT22;25367;-35.352;149.036;2022-08-23T09:23:09;24.80;41.20
39695;DHT22;25367;-35.352;149.036;2022-08-23T09:25:49;24.70;41.30
39695;DHT22;25367;-35.352;149.036;2022-08-23T09:28:19;24.80;42.70
39695;DHT22;25367;-35.352;149.036;2022-08-23T09:30:52;24.70;42.10
39695;DHT22;25367;-35.352;149.036;2022-08-23T09:33:23;24.80;41.80
39695;DHT22;25367;-35.352;149.036;2022-08-23T09:36:17;24.70;41.80
39695;DHT22;25367;-35.352;149.036;2022-08-23T09:38:54;24.70;41.80
39695;DHT22;25367;-35.352;149.036;2022-08-23T09:41:27;24.70;41.70
39695;DHT22;25367;-35.352;149.036;2022-08-23T09:44:00;24.70;41.70
39695;DHT22;25367;-35.352;149.036;2022-08-23T09:46:32;24.70;41.70
39695;DHT22;25367;-35.352;149.036;2022-08-23T09:49:22;24.70;41.60
39695;DHT22;25367;-35.352;149.036;2022-08-23T09:51:59;24.70;41.50
39695;DHT22;25367;-35.352;149.036;2022-08-23T09:54:31;24.70;41.50
39695;DHT22;25367;-35.352;149.036;2022-08-23T09:57:04;24.70;41.50
39695;DHT22;25367;-35.352;149.036;2022-08-23T09:59:40;24.60;41.40
39695;DHT22;25367;-35.352;149.036;2022-08-23T10:02:25;24.60;41.70
39695;DHT22;25367;-35.352;149.036;2022-08-23T10:05:00;24.50;41.90
39695;DHT22;25367;-35.352;149.036;2022-08-23T10:07:36;24.50;42.10
39695;DHT22;25367;-35.352;149.036;2022-08-23T10:10:17;24.50;41.90
39695;DHT22;25367;-35.352;149.036;2022-08-23T10:12:49;24.50;41.90
39695;DHT22;25367;-35.352;149.036;2022-08-23T10:15:18;24.50;41.50
39695;DHT22;25367;-35.352;149.036;2022-08-23T10:17:56;24.50;41.50
39695;DHT22;25367;-35.352;149.036;2022-08-23T10:20:34;24.40;41.80
39695;DHT22;25367;-35.352;149.036;2022-08-23T10:23:18;24.50;41.50
39695;DHT22;25367;-35.352;149.036;2022-08-23T10:25:56;24.50;41.40
39695;DHT22;25367;-35.352;149.036;2022-08-23T10:28:36;24.50;41.30
39695;DHT22;25367;-35.352;149.036;2022-08-23T10:31:13;24.50;41.20
39695;DHT22;25367;-35.352;149.036;2022-08-23T10:34:05;24.50;41.10
39695;DHT22;25367;-35.352;149.036;2022-08-23T10:36:49;24.50;41.00
39695;DHT22;25367;-35.352;149.036;2022-08-23T10:39:27;24.60;40.80
39695;DHT22;25367;-35.352;149.036;2022-08-23T10:42:03;24.50;40.70
39695;DHT22;25367;-35.352;149.036;2022-08-23T10:44:37;24.50;40.70
39695;DHT22;25367;-35.352;149.036;2022-08-23T10:47:19;24.60;40.60
39695;DHT22;25367;-35.352;149.036;2022-08-23T10:49:54;24.60;40.40
39695;DHT22;25367;-35.352;149.036;2022-08-23T10:52:32;24.60;40.20
39695;DHT22;25367;-35.352;149.036;2022-08-23T10:55:07;24.70;40.00
39695;DHT22;25367;-35.352;149.036;2022-08-23T10:57:40;24.80;39.70
39695;DHT22;25367;-35.352;149.036;2022-08-23T11:00:13;24.50;40.00
39695;DHT22;25367;-35.352;149.036;2022-08-23T11:02:48;24.60;39.90
39695;DHT22;25367;-35.352;149.036;2022-08-23T11:05:32;24.80;39.60
39695;DHT22;25367;-35.352;149.036;2022-08-23T11:08:09;24.90;39.50
39695;DHT22;25367;-35.352;149.036;2022-08-23T11:10:49;24.60;39.60
39695;DHT22;25367;-35.352;149.036;2022-08-23T11:13:21;24.20;40.20
39695;DHT22;25367;-35.352;149.036;2022-08-23T11:15:57;24.00;40.80
39695;DHT22;25367;-35.352;149.036;2022-08-23T11:18:43;24.30;40.20
39695;DHT22;25367;-35.352;149.036;2022-08-23T11:21:46;24.60;39.90
39695;DHT22;25367;-35.352;149.036;2022-08-23T11:24:51;24.60;39.50
39695;DHT22;25367;-35.352;149.036;2022-08-23T11:27:32;24.70;39.40
39695;DHT22;25367;-35.352;149.036;2022-08-23T11:30:43;24.60;39.20
39695;DHT22;25367;-35.352;149.036;2022-08-23T11:33:17;24.60;39.30
39695;DHT22;25367;-35.352;149.036;2022-08-23T11:35:49;24.70;39.20
39695;DHT22;25367;-35.352;149.036;2022-08-23T11:42:01;24.70;39.10
39695;DHT22;25367;-35.352;149.036;2022-08-23T11:44:42;24.60;39.00
39695;DHT22;25367;-35.352;149.036;2022-08-23T11:47:16;24.70;38.90
39695;DHT22;25367;-35.352;149.036;2022-08-23T11:50:16;24.60;38.80
39695;DHT22;25367;-35.352;149.036;2022-08-23T11:53:06;24.70;38.80
39695;DHT22;25367;-35.352;149.036;2022-08-23T11:56:02;24.60;38.80
39695;DHT22;25367;-35.352;149.036;2022-08-23T11:58:56;24.70;38.80
39695;DHT22;25367;-35.352;149.036;2022-08-23T12:01:34;24.70;38.60
39695;DHT22;25367;-35.352;149.036;2022-08-23T12:04:07;24.70;38.60
39695;DHT22;25367;-35.352;149.036;2022-08-23T12:06:44;24.50;39.30
39695;DHT22;25367;-35.352;149.036;2022-08-23T12:09:54;24.00;40.40
39695;DHT22;25367;-35.352;149.036;2022-08-23T12:12:31;23.50;41.70
39695;DHT22;25367;-35.352;149.036;2022-08-23T12:15:03;23.60;40.90
39695;DHT22;25367;-35.352;149.036;2022-08-23T12:18:08;24.20;39.90
39695;DHT22;25367;-35.352;149.036;2022-08-23T12:20:39;24.30;39.40
39695;DHT22;25367;-35.352;149.036;2022-08-23T12:23:15;24.50;39.30
39695;DHT22;25367;-35.352;149.036;2022-08-23T12:25:46;24.40;39.30
39695;DHT22;25367;-35.352;149.036;2022-08-23T12:28:35;24.50;39.30
39695;DHT22;25367;-35.352;149.036;2022-08-23T12:31:20;24.50;39.20
39695;DHT22;25367;-35.352;149.036;2022-08-23T12:37:05;24.40;39.10
39695;DHT22;25367;-35.352;149.036;2022-08-23T12:39:38;24.60;40.40
39695;DHT22;25367;-35.352;149.036;2022-08-23T12:42:12;24.80;40.70
39695;DHT22;25367;-35.352;149.036;2022-08-23T12:44:45;25.00;40.10
39695;DHT22;25367;-35.352;149.036;2022-08-23T12:47:18;25.30;39.60
39695;DHT22;25367;-35.352;149.036;2022-08-23T12:49:59;25.70;38.70
39695;DHT22;25367;-35.352;149.036;2022-08-23T12:52:33;25.90;38.70
39695;DHT22;25367;-35.352;149.036;2022-08-23T12:55:11;25.80;38.40
39695;DHT22;25367;-35.352;149.036;2022-08-23T12:57:43;25.60;38.20
39695;DHT22;25367;-35.352;149.036;2022-08-23T13:00:20;25.50;38.10
39695;DHT22;25367;-35.352;149.036;2022-08-23T13:02:55;25.40;38.00
39695;DHT22;25367;-35.352;149.036;2022-08-23T13:05:38;25.40;38.10
39695;DHT22;25367;-35.352;149.036;2022-08-23T13:08:15;25.40;38.20
39695;DHT22;25367;-35.352;149.036;2022-08-23T13:10:47;25.30;38.10
39695;DHT22;25367;-35.352;149.036;2022-08-23T13:13:20;25.40;38.30
39695;DHT22;25367;-35.352;149.036;2022-08-23T13:15:53;25.30;38.40
39695;DHT22;25367;-35.352;149.036;2022-08-23T13:18:29;25.50;38.00
39695;DHT22;25367;-35.352;149.036;2022-08-23T13:21:22;25.70;37.60
39695;DHT22;25367;-35.352;149.036;2022-08-23T13:23:57;25.80;37.40
39695;DHT22;25367;-35.352;149.036;2022-08-23T13:26:36;25.80;37.40
39695;DHT22;25367;-35.352;149.036;2022-08-23T13:29:09;25.90;37.40
39695;DHT22;25367;-35.352;149.036;2022-08-23T13:32:00;25.60;38.10
39695;DHT22;25367;-35.352;149.036;2022-08-23T13:34:38;25.80;37.60
39695;DHT22;25367;-35.352;149.036;2022-08-23T13:37:22;25.80;37.60
39695;DHT22;25367;-35.352;149.036;2022-08-23T13:39:58;25.70;37.50
39695;DHT22;25367;-35.352;149.036;2022-08-23T13:42:40;25.60;37.50
39695;DHT22;25367;-35.352;149.036;2022-08-23T13:45:14;25.60;37.40
39695;DHT22;25367;-35.352;149.036;2022-08-23T13:47:48;25.40;37.40
39695;DHT22;25367;-35.352;149.036;2022-08-23T13:50:23;25.30;37.90
39695;DHT22;25367;-35.352;149.036;2022-08-23T13:52:54;25.30;37.80
39695;DHT22;25367;-35.352;149.036;2022-08-23T13:55:28;25.40;38.20
39695;DHT22;25367;-35.352;149.036;2022-08-23T13:57:58;25.40;37.90
39695;DHT22;25367;-35.352;149.036;2022-08-23T14:00:31;25.60;37.60
39695;DHT22;25367;-35.352;149.036;2022-08-23T14:03:01;26.00;36.90
39695;DHT22;25367;-35.352;149.036;2022-08-23T14:05:31;26.10;36.10
39695;DHT22;25367;-35.352;149.036;2022-08-23T14:08:01;26.10;36.00
39695;DHT22;25367;-35.352;149.036;2022-08-23T14:10:35;25.90;36.20
39695;DHT22;25367;-35.352;149.036;2022-08-23T14:13:05;25.90;36.20
39695;DHT22;25367;-35.352;149.036;2022-08-23T14:15:35;25.80;36.80
39695;DHT22;25367;-35.352;149.036;2022-08-23T14:18:05;25.70;36.60
39695;DHT22;25367;-35.352;149.036;2022-08-23T14:20:35;25.80;36.70
39695;DHT22;25367;-35.352;149.036;2022-08-23T14:23:05;25.90;36.70
39695;DHT22;25367;-35.352;149.036;2022-08-23T14:25:39;26.10;36.40
39695;DHT22;25367;-35.352;149.036;2022-08-23T14:28:09;26.20;36.10
39695;DHT22;25367;-35.352;149.036;2022-08-23T14:30:39;26.40;35.70
39695;DHT22;25367;-35.352;149.036;2022-08-23T14:33:09;26.60;35.30
39695;DHT22;25367;-35.352;149.036;2022-08-23T14:35:39;26.30;35.00
39695;DHT22;25367;-35.352;149.036;2022-08-23T14:38:09;26.10;35.20
39695;DHT22;25367;-35.352;149.036;2022-08-23T14:40:53;25.90;35.60
39695;DHT22;25367;-35.352;149.036;2022-08-23T14:43:24;25.90;35.70
39695;DHT22;25367;-35.352;149.036;2022-08-23T14:45:55;25.80;35.40
39695;DHT22;25367;-35.352;149.036;2022-08-23T14:48:25;25.60;35.60
39695;DHT22;25367;-35.352;149.036;2022-08-23T14:50:55;25.50;35.90
39695;DHT22;25367;-35.352;149.036;2022-08-23T14:53:28;25.50;35.90
39695;DHT22;25367;-35.352;149.036;2022-08-23T14:56:02;25.10;36.40
39695;DHT22;25367;-35.352;149.036;2022-08-23T14:58:32;25.30;36.70
39695;DHT22;25367;-35.352;149.036;2022-08-23T15:01:02;25.30;36.10
39695;DHT22;25367;-35.352;149.036;2022-08-23T15:03:32;25.30;36.00
39695;DHT22;25367;-35.352;149.036;2022-08-23T15:06:02;25.20;36.50
39695;DHT22;25367;-35.352;149.036;2022-08-23T15:08:32;25.20;36.60
39695;DHT22;25367;-35.352;149.036;2022-08-23T15:11:04;25.40;36.50
39695;DHT22;25367;-35.352;149.036;2022-08-23T15:13:34;25.50;36.30
39695;DHT22;25367;-35.352;149.036;2022-08-23T15:16:06;25.70;36.20
39695;DHT22;25367;-35.352;149.036;2022-08-23T15:18:38;25.90;35.60
39695;DHT22;25367;-35.352;149.036;2022-08-23T15:21:08;25.80;35.20
39695;DHT22;25367;-35.352;149.036;2022-08-23T15:23:38;25.70;35.20
39695;DHT22;25367;-35.352;149.036;2022-08-23T15:26:10;25.70;35.20
39695;DHT22;25367;-35.352;149.036;2022-08-23T15:28:41;25.20;35.90
39695;DHT22;25367;-35.352;149.036;2022-08-23T15:31:11;25.10;36.30
39695;DHT22;25367;-35.352;149.036;2022-08-23T15:33:42;25.30;36.10
39695;DHT22;25367;-35.352;149.036;2022-08-23T15:36:12;25.60;35.70
39695;DHT22;25367;-35.352;149.036;2022-08-23T15:38:43;25.80;35.50